sensor_id;sensor_type;location;lat;lon;timestamp;temperature;humidity
21259;DHT22;10787;53.364;-1.480;2023-08-07T00:00:57;12.70;1.00
21259;DHT22;10787;53.364;-1.480;2023-08-07T00:03:41;12.70;1.00
21259;DHT22;10787;53.364;-1.480;2023-08-07T00:06:26;12.70;1.00
21259;DHT22;10787;53.364;-1.480;2023-08-07T00:09:10;12.70;1.00
21259;DHT22;10787;53.364;-1.480;2023-08-07T00:11:54;12.70;1.00
21259;DHT22;10787;53.364;-1.480;2023-08-07T00:14:38;12.60;1.00
21259;DHT22;10787;53.364;-1.480;2023-08-07T00:17:22;12.60;1.00
21259;DHT22;10787;53.364;-1.480;2023-08-07T00:20:07;12.60;1.00
21259;DHT22;10787;53.364;-1.480;2023-08-07T00:22:51;12.50;1.00
21259;DHT22;10787;53.364;-1.480;2023-08-07T00:25:35;12.50;1.00
21259;DHT22;10787;53.364;-1.480;2023-08-07T00:28:19;12.40;1.00
21259;DHT22;10787;53.364;-1.480;2023-08-07T00:31:03;12.40;1.00
21259;DHT22;10787;53.364;-1.480;2023-08-07T00:33:48;12.30;1.00
21259;DHT22;10787;53.364;-1.480;2023-08-07T00:36:36;12.30;1.00
21259;DHT22;10787;53.364;-1.480;2023-08-07T00:39:20;12.20;1.00
21259;DHT22;10787;53.364;-1.480;2023-08-07T00:42:05;12.20;1.00
21259;DHT22;10787;53.364;-1.480;2023-08-07T00:44:49;12.10;1.00
21259;DHT22;10787;53.364;-1.480;2023-08-07T00:47:34;12.10;1.00
21259;DHT22;10787;53.364;-1.480;2023-08-07T00:50:18;12.00;85.20
21259;DHT22;10787;53.364;-1.480;2023-08-07T00:53:03;11.90;99.90
21259;DHT22;10787;53.364;-1.480;2023-08-07T00:55:48;11.90;99.90
21259;DHT22;10787;53.364;-1.480;2023-08-07T00:58:33;11.80;99.90
21259;DHT22;10787;53.364;-1.480;2023-08-07T01:01:18;11.80;99.90
21259;DHT22;10787;53.364;-1.480;2023-08-07T01:04:03;11.80;99.90
21259;DHT22;10787;53.364;-1.480;2023-08-07T01:06:48;11.80;99.90
21259;DHT22;10787;53.364;-1.480;2023-08-07T01:09:32;11.70;99.90
21259;DHT22;10787;53.364;-1.480;2023-08-07T01:12:24;11.70;99.90
21259;DHT22;10787;53.364;-1.480;2023-08-07T01:15:16;11.70;1.00
21259;DHT22;10787;53.364;-1.480;2023-08-07T01:18:03;11.60;1.00
21259;DHT22;10787;53.364;-1.480;2023-08-07T01:20:48;11.60;1.00
21259;DHT22;10787;53.364;-1.480;2023-08-07T01:23:32;11.60;1.00
21259;DHT22;10787;53.364;-1.480;2023-08-07T01:26:18;11.50;1.00
21259;DHT22;10787;53.364;-1.480;2023-08-07T01:29:34;11.50;1.00
21259;DHT22;10787;53.364;-1.480;2023-08-07T01:35:33;11.50;1.00
21259;DHT22;10787;53.364;-1.480;2023-08-07T01:38:21;11.50;1.00
21259;DHT22;10787;53.364;-1.480;2023-08-07T01:41:07;11.50;1.00
21259;DHT22;10787;53.364;-1.480;2023-08-07T01:43:52;11.40;1.00
21259;DHT22;10787;53.364;-1.480;2023-08-07T01:46:36;11.40;1.00
21259;DHT22;10787;53.364;-1.480;2023-08-07T01:49:20;11.40;1.00
21259;DHT22;10787;53.364;-1.480;2023-08-07T01:52:06;11.30;1.00
21259;DHT22;10787;53.364;-1.480;2023-08-07T01:54:50;11.30;1.00
21259;DHT22;10787;53.364;-1.480;2023-08-07T01:57:35;11.30;1.00
21259;DHT22;10787;53.364;-1.480;2023-08-07T02:00:19;11.20;88.90
21259;DHT22;10787;53.364;-1.480;2023-08-07T02:03:03;11.20;49.50
21259;DHT22;10787;53.364;-1.480;2023-08-07T02:05:47;11.20;99.90
21259;DHT22;10787;53.364;-1.480;2023-08-07T02:08:32;11.20;99.90
21259;DHT22;10787;53.364;-1.480;2023-08-07T02:11:16;11.10;1.00
21259;DHT22;10787;53.364;-1.480;2023-08-07T02:14:00;11.10;1.00
21259;DHT22;10787;53.364;-1.480;2023-08-07T02:16:44;11.10;99.90
21259;DHT22;10787;53.364;-1.480;2023-08-07T02:19:28;11.10;1.00
21259;DHT22;10787;53.364;-1.480;2023-08-07T02:22:12;11.00;1.00
21259;DHT22;10787;53.364;-1.480;2023-08-07T02:24:57;11.10;1.00
21259;DHT22;10787;53.364;-1.480;2023-08-07T02:27:40;11.10;1.00
21259;DHT22;10787;53.364;-1.480;2023-08-07T02:30:25;11.00;1.00
21259;DHT22;10787;53.364;-1.480;2023-08-07T02:33:09;11.10;1.00
21259;DHT22;10787;53.364;-1.480;2023-08-07T02:35:53;11.10;1.00
21259;DHT22;10787;53.364;-1.480;2023-08-07T02:38:37;11.10;1.00
21259;DHT22;10787;53.364;-1.480;2023-08-07T02:41:22;11.10;1.00
21259;DHT22;10787;53.364;-1.480;2023-08-07T02:44:06;11.20;1.00
21259;DHT22;10787;53.364;-1.480;2023-08-07T02:46:50;11.20;1.00
21259;DHT22;10787;53.364;-1.480;2023-08-07T02:49:34;11.30;1.00
21259;DHT22;10787;53.364;-1.480;2023-08-07T02:52:19;11.30;1.00
21259;DHT22;10787;53.364;-1.480;2023-08-07T02:55:03;11.40;1.00
21259;DHT22;10787;53.364;-1.480;2023-08-07T02:57:47;11.40;99.90
21259;DHT22;10787;53.364;-1.480;2023-08-07T03:00:31;11.40;99.90
21259;DHT22;10787;53.364;-1.480;2023-08-07T03:03:18;11.40;99.90
21259;DHT22;10787;53.364;-1.480;2023-08-07T03:06:03;11.30;99.90
21259;DHT22;10787;53.364;-1.480;2023-08-07T03:08:48;11.40;99.90
21259;DHT22;10787;53.364;-1.480;2023-08-07T03:11:32;11.30;99.90
21259;DHT22;10787;53.364;-1.480;2023-08-07T03:14:31;11.40;99.90
21259;DHT22;10787;53.364;-1.480;2023-08-07T03:17:16;11.40;99.90
21259;DHT22;10787;53.364;-1.480;2023-08-07T03:20:00;11.40;99.90
21259;DHT22;10787;53.364;-1.480;2023-08-07T03:22:45;11.40;1.00
21259;DHT22;10787;53.364;-1.480;2023-08-07T03:25:29;11.50;1.00
21259;DHT22;10787;53.364;-1.480;2023-08-07T03:28:14;11.70;1.00
21259;DHT22;10787;53.364;-1.480;2023-08-07T03:30:58;11.90;99.90
21259;DHT22;10787;53.364;-1.480;2023-08-07T03:33:43;12.10;1.00
21259;DHT22;10787;53.364;-1.480;2023-08-07T03:36:27;12.10;1.00
21259;DHT22;10787;53.364;-1.480;2023-08-07T03:39:12;12.20;1.00
21259;DHT22;10787;53.364;-1.480;2023-08-07T03:41:56;12.30;1.00
21259;DHT22;10787;53.364;-1.480;2023-08-07T03:44:40;12.30;99.90
21259;DHT22;10787;53.364;-1.480;2023-08-07T03:47:24;12.40;99.90
21259;DHT22;10787;53.364;-1.480;2023-08-07T03:50:09;12.40;91.80
21259;DHT22;10787;53.364;-1.480;2023-08-07T03:52:53;12.50;1.00
21259;DHT22;10787;53.364;-1.480;2023-08-07T03:55:37;12.60;1.00
21259;DHT22;10787;53.364;-1.480;2023-08-07T03:58:21;12.50;1.00
21259;DHT22;10787;53.364;-1.480;2023-08-07T04:01:05;12.60;1.00
21259;DHT22;10787;53.364;-1.480;2023-08-07T04:03:50;12.60;1.00
21259;DHT22;10787;53.364;-1.480;2023-08-07T04:06:34;12.60;1.00
21259;DHT22;10787;53.364;-1.480;2023-08-07T04:09:18;12.50;1.00
21259;DHT22;10787;53.364;-1.480;2023-08-07T04:12:03;12.60;1.00
21259;DHT22;10787;53.364;-1.480;2023-08-07T04:14:47;12.60;99.90
21259;DHT22;10787;53.364;-1.480;2023-08-07T04:17:31;12.60;99.90
21259;DHT22;10787;53.364;-1.480;2023-08-07T04:20:16;12.60;99.90
21259;DHT22;10787;53.364;-1.480;2023-08-07T04:23:00;12.50;99.90
21259;DHT22;10787;53.364;-1.480;2023-08-07T04:25:45;12.60;99.90
21259;DHT22;10787;53.364;-1.480;2023-08-07T04:28:30;12.60;99.90
21259;DHT22;10787;53.364;-1.480;2023-08-07T04:31:14;12.60;99.90
21259;DHT22;10787;53.364;-1.480;2023-08-07T04:33:58;12.70;99.90
21259;DHT22;10787;53.364;-1.480;2023-08-07T04:36:43;12.70;99.90
21259;DHT22;10787;53.364;-1.480;2023-08-07T04:39:27;12.70;99.90
21259;DHT22;10787;53.364;-1.480;2023-08-07T04:42:11;12.70;99.90
21259;DHT22;10787;53.364;-1.480;2023-08-07T04:44:55;12.70;99.90
21259;DHT22;10787;53.364;-1.480;2023-08-07T04:47:39;12.70;99.90
21259;DHT22;10787;53.364;-1.480;2023-08-07T04:50:23;12.60;96.00
21259;DHT22;10787;53.364;-1.480;2023-08-07T04:53:07;12.60;90.30
21259;DHT22;10787;53.364;-1.480;2023-08-07T04:55:51;12.60;76.10
21259;DHT22;10787;53.364;-1.480;2023-08-07T04:58:35;12.60;48.30
21259;DHT22;10787;53.364;-1.480;2023-08-07T05:01:19;12.60;11.80
21259;DHT22;10787;53.364;-1.480;2023-08-07T05:04:05;12.60;1.00
21259;DHT22;10787;53.364;-1.480;2023-08-07T05:06:49;12.60;1.00
21259;DHT22;10787;53.364;-1.480;2023-08-07T05:09:33;12.60;1.00
21259;DHT22;10787;53.364;-1.480;2023-08-07T05:12:18;12.60;1.00
21259;DHT22;10787;53.364;-1.480;2023-08-07T05:15:03;12.60;1.00
21259;DHT22;10787;53.364;-1.480;2023-08-07T05:17:47;12.60;1.00
21259;DHT22;10787;53.364;-1.480;2023-08-07T05:20:31;12.60;1.00
21259;DHT22;10787;53.364;-1.480;2023-08-07T05:23:15;12.60;1.00
21259;DHT22;10787;53.364;-1.480;2023-08-07T05:26:00;12.60;1.00
21259;DHT22;10787;53.364;-1.480;2023-08-07T05:28:44;12.70;1.00
21259;DHT22;10787;53.364;-1.480;2023-08-07T05:31:28;12.70;1.00
21259;DHT22;10787;53.364;-1.480;2023-08-07T05:34:14;12.70;1.00
21259;DHT22;10787;53.364;-1.480;2023-08-07T05:36:59;12.80;1.00
21259;DHT22;10787;53.364;-1.480;2023-08-07T05:39:43;12.80;1.00
21259;DHT22;10787;53.364;-1.480;2023-08-07T05:42:27;12.90;1.00
21259;DHT22;10787;53.364;-1.480;2023-08-07T05:45:12;13.20;1.00
21259;DHT22;10787;53.364;-1.480;2023-08-07T05:47:56;13.40;1.00
21259;DHT22;10787;53.364;-1.480;2023-08-07T05:50:41;13.50;99.90
21259;DHT22;10787;53.364;-1.480;2023-08-07T05:53:25;13.60;99.90
21259;DHT22;10787;53.364;-1.480;2023-08-07T05:56:10;13.60;99.90
21259;DHT22;10787;53.364;-1.480;2023-08-07T05:58:54;13.60;99.90
21259;DHT22;10787;53.364;-1.480;2023-08-07T06:01:38;13.60;99.90
21259;DHT22;10787;53.364;-1.480;2023-08-07T06:04:25;13.60;99.90
21259;DHT22;10787;53.364;-1.480;2023-08-07T06:07:09;13.60;99.90
21259;DHT22;10787;53.364;-1.480;2023-08-07T06:09:53;13.70;99.90
21259;DHT22;10787;53.364;-1.480;2023-08-07T06:12:37;13.70;99.90
21259;DHT22;10787;53.364;-1.480;2023-08-07T06:15:22;13.70;99.90
21259;DHT22;10787;53.364;-1.480;2023-08-07T06:18:06;13.80;99.90
21259;DHT22;10787;53.364;-1.480;2023-08-07T06:20:50;13.70;99.90
21259;DHT22;10787;53.364;-1.480;2023-08-07T06:23:34;13.80;99.90
21259;DHT22;10787;53.364;-1.480;2023-08-07T06:26:18;13.80;99.90
21259;DHT22;10787;53.364;-1.480;2023-08-07T06:29:02;13.80;99.90
21259;DHT22;10787;53.364;-1.480;2023-08-07T06:31:47;13.80;99.90
21259;DHT22;10787;53.364;-1.480;2023-08-07T06:34:31;13.90;99.90
21259;DHT22;10787;53.364;-1.480;2023-08-07T06:37:15;13.90;99.90
21259;DHT22;10787;53.364;-1.480;2023-08-07T06:39:59;14.00;99.90
21259;DHT22;10787;53.364;-1.480;2023-08-07T06:42:44;14.10;99.90
21259;DHT22;10787;53.364;-1.480;2023-08-07T06:45:28;14.10;99.90
21259;DHT22;10787;53.364;-1.480;2023-08-07T06:48:13;14.20;99.90
21259;DHT22;10787;53.364;-1.480;2023-08-07T06:50:57;14.40;99.90
21259;DHT22;10787;53.364;-1.480;2023-08-07T06:53:41;14.50;99.90
21259;DHT22;10787;53.364;-1.480;2023-08-07T06:56:26;14.60;99.90
21259;DHT22;10787;53.364;-1.480;2023-08-07T06:59:10;14.70;99.90
21259;DHT22;10787;53.364;-1.480;2023-08-07T07:01:54;14.80;99.90
21259;DHT22;10787;53.364;-1.480;2023-08-07T07:04:38;14.80;99.90
21259;DHT22;10787;53.364;-1.480;2023-08-07T07:07:22;14.80;99.90
21259;DHT22;10787;53.364;-1.480;2023-08-07T07:10:07;14.80;99.90
21259;DHT22;10787;53.364;-1.480;2023-08-07T07:12:51;14.90;99.90
21259;DHT22;10787;53.364;-1.480;2023-08-07T07:15:36;15.00;99.90
21259;DHT22;10787;53.364;-1.480;2023-08-07T07:18:20;15.10;99.90
21259;DHT22;10787;53.364;-1.480;2023-08-07T07:21:05;15.20;99.90
21259;DHT22;10787;53.364;-1.480;2023-08-07T07:23:49;15.20;99.90
21259;DHT22;10787;53.364;-1.480;2023-08-07T07:26:33;15.30;99.90
21259;DHT22;10787;53.364;-1.480;2023-08-07T07:29:17;15.40;99.90
21259;DHT22;10787;53.364;-1.480;2023-08-07T07:32:03;15.50;99.90
21259;DHT22;10787;53.364;-1.480;2023-08-07T07:34:47;15.60;99.90
21259;DHT22;10787;53.364;-1.480;2023-08-07T07:37:31;15.80;99.90
21259;DHT22;10787;53.364;-1.480;2023-08-07T07:40:16;15.90;99.90
21259;DHT22;10787;53.364;-1.480;2023-08-07T07:43:00;16.00;99.90
21259;DHT22;10787;53.364;-1.480;2023-08-07T07:45:44;16.00;99.90
21259;DHT22;10787;53.364;-1.480;2023-08-07T07:48:28;16.00;99.90
21259;DHT22;10787;53.364;-1.480;2023-08-07T07:51:12;16.00;99.90
21259;DHT22;10787;53.364;-1.480;2023-08-07T07:53:57;16.00;99.90
21259;DHT22;10787;53.364;-1.480;2023-08-07T07:56:42;16.00;99.90
21259;DHT22;10787;53.364;-1.480;2023-08-07T07:59:26;16.10;99.90
21259;DHT22;10787;53.364;-1.480;2023-08-07T08:02:11;16.10;99.90
21259;DHT22;10787;53.364;-1.480;2023-08-07T08:04:57;16.10;99.90
21259;DHT22;10787;53.364;-1.480;2023-08-07T08:07:41;16.00;99.90
21259;DHT22;10787;53.364;-1.480;2023-08-07T08:10:26;16.10;99.90
21259;DHT22;10787;53.364;-1.480;2023-08-07T08:13:11;16.20;99.90
21259;DHT22;10787;53.364;-1.480;2023-08-07T08:15:55;16.40;99.90
21259;DHT22;10787;53.364;-1.480;2023-08-07T08:18:45;16.60;99.90
21259;DHT22;10787;53.364;-1.480;2023-08-07T08:21:42;16.70;99.90
21259;DHT22;10787;53.364;-1.480;2023-08-07T08:24:27;16.70;99.90
21259;DHT22;10787;53.364;-1.480;2023-08-07T08:27:12;16.80;99.90
21259;DHT22;10787;53.364;-1.480;2023-08-07T08:29:55;16.90;99.90
21259;DHT22;10787;53.364;-1.480;2023-08-07T08:32:40;17.00;99.90
21259;DHT22;10787;53.364;-1.480;2023-08-07T08:35:24;17.10;99.90
21259;DHT22;10787;53.364;-1.480;2023-08-07T08:38:09;17.20;99.90
21259;DHT22;10787;53.364;-1.480;2023-08-07T08:40:53;17.30;99.90
21259;DHT22;10787;53.364;-1.480;2023-08-07T08:43:38;17.50;99.90
21259;DHT22;10787;53.364;-1.480;2023-08-07T08:46:24;17.40;99.90
21259;DHT22;10787;53.364;-1.480;2023-08-07T08:49:11;17.10;99.90
21259;DHT22;10787;53.364;-1.480;2023-08-07T08:51:59;17.00;99.90
21259;DHT22;10787;53.364;-1.480;2023-08-07T08:54:44;17.20;99.90
21259;DHT22;10787;53.364;-1.480;2023-08-07T08:57:29;17.40;99.90
21259;DHT22;10787;53.364;-1.480;2023-08-07T09:00:14;17.40;99.90
21259;DHT22;10787;53.364;-1.480;2023-08-07T09:03:01;17.40;99.90
21259;DHT22;10787;53.364;-1.480;2023-08-07T09:05:47;17.40;99.90
21259;DHT22;10787;53.364;-1.480;2023-08-07T09:08:31;17.40;99.90
21259;DHT22;10787;53.364;-1.480;2023-08-07T09:11:16;17.50;99.90
21259;DHT22;10787;53.364;-1.480;2023-08-07T09:14:02;17.60;99.90
21259;DHT22;10787;53.364;-1.480;2023-08-07T09:16:48;17.80;99.90
21259;DHT22;10787;53.364;-1.480;2023-08-07T09:19:33;18.00;99.90
21259;DHT22;10787;53.364;-1.480;2023-08-07T09:22:18;17.80;99.90
21259;DHT22;10787;53.364;-1.480;2023-08-07T09:25:03;17.80;99.90
21259;DHT22;10787;53.364;-1.480;2023-08-07T09:27:48;18.00;99.90
21259;DHT22;10787;53.364;-1.480;2023-08-07T09:30:34;18.30;99.90
21259;DHT22;10787;53.364;-1.480;2023-08-07T09:33:26;18.40;99.90
21259;DHT22;10787;53.364;-1.480;2023-08-07T09:36:11;18.50;99.90
21259;DHT22;10787;53.364;-1.480;2023-08-07T09:38:56;18.50;99.90
21259;DHT22;10787;53.364;-1.480;2023-08-07T09:41:40;18.40;99.90
21259;DHT22;10787;53.364;-1.480;2023-08-07T09:44:24;18.20;99.90
21259;DHT22;10787;53.364;-1.480;2023-08-07T09:47:13;18.40;99.90
21259;DHT22;10787;53.364;-1.480;2023-08-07T09:50:00;18.80;99.90
21259;DHT22;10787;53.364;-1.480;2023-08-07T09:52:48;19.00;99.90
21259;DHT22;10787;53.364;-1.480;2023-08-07T09:55:33;19.10;99.90
21259;DHT22;10787;53.364;-1.480;2023-08-07T09:58:17;18.90;99.90
21259;DHT22;10787;53.364;-1.480;2023-08-07T10:01:05;18.60;99.90
21259;DHT22;10787;53.364;-1.480;2023-08-07T10:03:52;18.60;99.90
21259;DHT22;10787;53.364;-1.480;2023-08-07T10:06:36;18.40;99.90
21259;DHT22;10787;53.364;-1.480;2023-08-07T10:09:21;18.20;99.90
21259;DHT22;10787;53.364;-1.480;2023-08-07T10:12:06;18.10;99.90
21259;DHT22;10787;53.364;-1.480;2023-08-07T10:14:51;18.20;99.90
21259;DHT22;10787;53.364;-1.480;2023-08-07T10:17:35;18.50;99.90
21259;DHT22;10787;53.364;-1.480;2023-08-07T10:20:19;18.80;99.90
21259;DHT22;10787;53.364;-1.480;2023-08-07T10:23:07;19.40;99.90
21259;DHT22;10787;53.364;-1.480;2023-08-07T10:25:52;19.30;99.90
21259;DHT22;10787;53.364;-1.480;2023-08-07T10:28:39;19.10;99.90
21259;DHT22;10787;53.364;-1.480;2023-08-07T10:31:25;19.20;99.90
21259;DHT22;10787;53.364;-1.480;2023-08-07T10:34:09;19.10;99.90
21259;DHT22;10787;53.364;-1.480;2023-08-07T10:36:54;19.30;99.90
21259;DHT22;10787;53.364;-1.480;2023-08-07T10:40:01;19.40;99.90
21259;DHT22;10787;53.364;-1.480;2023-08-07T10:42:58;19.40;79.30
21259;DHT22;10787;53.364;-1.480;2023-08-07T10:45:43;19.50;76.40
21259;DHT22;10787;53.364;-1.480;2023-08-07T10:48:27;19.70;91.10
21259;DHT22;10787;53.364;-1.480;2023-08-07T10:51:14;20.00;98.30
21259;DHT22;10787;53.364;-1.480;2023-08-07T10:54:00;20.20;96.70
21259;DHT22;10787;53.364;-1.480;2023-08-07T10:56:52;19.90;83.10
21259;DHT22;10787;53.364;-1.480;2023-08-07T10:59:38;19.70;64.90
21259;DHT22;10787;53.364;-1.480;2023-08-07T11:02:24;20.00;67.90
21259;DHT22;10787;53.364;-1.480;2023-08-07T11:05:09;19.80;63.40
21259;DHT22;10787;53.364;-1.480;2023-08-07T11:07:55;19.70;50.30
21259;DHT22;10787;53.364;-1.480;2023-08-07T11:10:41;19.40;41.00
21259;DHT22;10787;53.364;-1.480;2023-08-07T11:13:29;19.50;42.70
21259;DHT22;10787;53.364;-1.480;2023-08-07T11:16:13;19.30;43.10
21259;DHT22;10787;53.364;-1.480;2023-08-07T11:18:58;19.30;62.60
21259;DHT22;10787;53.364;-1.480;2023-08-07T11:21:43;19.70;51.50
21259;DHT22;10787;53.364;-1.480;2023-08-07T11:24:28;19.70;44.40
21259;DHT22;10787;53.364;-1.480;2023-08-07T11:27:13;19.60;45.50
21259;DHT22;10787;53.364;-1.480;2023-08-07T11:29:57;19.40;39.60
21259;DHT22;10787;53.364;-1.480;2023-08-07T11:32:42;19.80;55.90
21259;DHT22;10787;53.364;-1.480;2023-08-07T11:35:26;20.00;56.90
21259;DHT22;10787;53.364;-1.480;2023-08-07T11:38:11;20.20;90.10
21259;DHT22;10787;53.364;-1.480;2023-08-07T11:40:57;20.40;62.50
21259;DHT22;10787;53.364;-1.480;2023-08-07T11:43:43;20.10;58.00
21259;DHT22;10787;53.364;-1.480;2023-08-07T11:46:29;20.50;58.80
21259;DHT22;10787;53.364;-1.480;2023-08-07T11:49:23;20.60;74.40
21259;DHT22;10787;53.364;-1.480;2023-08-07T11:52:07;20.80;83.60
21259;DHT22;10787;53.364;-1.480;2023-08-07T11:54:55;20.60;91.10
21259;DHT22;10787;53.364;-1.480;2023-08-07T11:57:39;20.30;78.20
21259;DHT22;10787;53.364;-1.480;2023-08-07T12:00:28;20.00;83.10
21259;DHT22;10787;53.364;-1.480;2023-08-07T12:03:30;19.70;59.40
21259;DHT22;10787;53.364;-1.480;2023-08-07T12:06:14;19.70;68.70
21259;DHT22;10787;53.364;-1.480;2023-08-07T12:08:59;19.50;71.60
21259;DHT22;10787;53.364;-1.480;2023-08-07T12:11:44;19.20;52.00
21259;DHT22;10787;53.364;-1.480;2023-08-07T12:14:31;19.20;60.80
21259;DHT22;10787;53.364;-1.480;2023-08-07T12:17:16;19.30;63.20
21259;DHT22;10787;53.364;-1.480;2023-08-07T12:20:02;19.50;68.30
21259;DHT22;10787;53.364;-1.480;2023-08-07T12:22:47;19.70;91.00
21259;DHT22;10787;53.364;-1.480;2023-08-07T12:25:32;19.90;89.20
21259;DHT22;10787;53.364;-1.480;2023-08-07T12:28:16;19.90;72.90
21259;DHT22;10787;53.364;-1.480;2023-08-07T12:31:01;19.90;77.80
21259;DHT22;10787;53.364;-1.480;2023-08-07T12:33:45;19.90;77.10
21259;DHT22;10787;53.364;-1.480;2023-08-07T12:36:29;19.90;65.30
21259;DHT22;10787;53.364;-1.480;2023-08-07T12:39:13;20.30;90.40
21259;DHT22;10787;53.364;-1.480;2023-08-07T12:41:58;20.80;92.40
21259;DHT22;10787;53.364;-1.480;2023-08-07T12:44:43;21.10;96.20
21259;DHT22;10787;53.364;-1.480;2023-08-07T12:47:27;20.90;94.20
21259;DHT22;10787;53.364;-1.480;2023-08-07T12:50:12;20.60;90.60
21259;DHT22;10787;53.364;-1.480;2023-08-07T12:52:56;20.50;89.60
21259;DHT22;10787;53.364;-1.480;2023-08-07T12:55:41;21.00;93.40
21259;DHT22;10787;53.364;-1.480;2023-08-07T12:58:34;21.30;88.60
21259;DHT22;10787;53.364;-1.480;2023-08-07T13:01:19;21.40;78.30
21259;DHT22;10787;53.364;-1.480;2023-08-07T13:04:03;21.30;87.90
21259;DHT22;10787;53.364;-1.480;2023-08-07T13:06:50;21.40;92.40
21259;DHT22;10787;53.364;-1.480;2023-08-07T13:09:34;21.50;72.10
21259;DHT22;10787;53.364;-1.480;2023-08-07T13:12:19;21.50;68.00
21259;DHT22;10787;53.364;-1.480;2023-08-07T13:15:05;21.40;55.20
21259;DHT22;10787;53.364;-1.480;2023-08-07T13:17:49;21.00;44.40
21259;DHT22;10787;53.364;-1.480;2023-08-07T13:20:34;20.60;36.30
21259;DHT22;10787;53.364;-1.480;2023-08-07T13:23:18;20.10;23.60
21259;DHT22;10787;53.364;-1.480;2023-08-07T13:26:03;20.20;29.70
21259;DHT22;10787;53.364;-1.480;2023-08-07T13:28:47;20.30;32.40
21259;DHT22;10787;53.364;-1.480;2023-08-07T13:31:31;20.60;25.50
21259;DHT22;10787;53.364;-1.480;2023-08-07T13:34:15;20.90;31.50
21259;DHT22;10787;53.364;-1.480;2023-08-07T13:37:00;21.00;41.20
21259;DHT22;10787;53.364;-1.480;2023-08-07T13:39:44;21.10;39.60
21259;DHT22;10787;53.364;-1.480;2023-08-07T13:42:28;21.00;44.40
21259;DHT22;10787;53.364;-1.480;2023-08-07T13:45:12;21.10;51.40
21259;DHT22;10787;53.364;-1.480;2023-08-07T13:47:57;20.70;36.90
21259;DHT22;10787;53.364;-1.480;2023-08-07T13:50:42;21.20;46.90
21259;DHT22;10787;53.364;-1.480;2023-08-07T13:53:26;21.30;54.60
21259;DHT22;10787;53.364;-1.480;2023-08-07T13:56:13;21.30;53.30
21259;DHT22;10787;53.364;-1.480;2023-08-07T13:58:57;21.30;58.70
21259;DHT22;10787;53.364;-1.480;2023-08-07T14:01:42;21.40;53.10
21259;DHT22;10787;53.364;-1.480;2023-08-07T14:04:26;21.40;52.40
21259;DHT22;10787;53.364;-1.480;2023-08-07T14:07:11;21.40;59.50
21259;DHT22;10787;53.364;-1.480;2023-08-07T14:09:56;21.60;76.90
21259;DHT22;10787;53.364;-1.480;2023-08-07T14:12:40;21.70;63.00
21259;DHT22;10787;53.364;-1.480;2023-08-07T14:15:24;22.40;89.80
21259;DHT22;10787;53.364;-1.480;2023-08-07T14:18:09;23.90;98.90
21259;DHT22;10787;53.364;-1.480;2023-08-07T14:20:55;25.00;95.90
21259;DHT22;10787;53.364;-1.480;2023-08-07T14:23:39;25.20;95.20
21259;DHT22;10787;53.364;-1.480;2023-08-07T14:26:26;24.80;66.90
21259;DHT22;10787;53.364;-1.480;2023-08-07T14:29:12;24.00;52.60
21259;DHT22;10787;53.364;-1.480;2023-08-07T14:31:56;23.70;90.90
21259;DHT22;10787;53.364;-1.480;2023-08-07T14:34:40;23.20;78.60
21259;DHT22;10787;53.364;-1.480;2023-08-07T14:37:25;23.00;90.90
21259;DHT22;10787;53.364;-1.480;2023-08-07T14:40:10;22.80;49.80
21259;DHT22;10787;53.364;-1.480;2023-08-07T14:42:55;22.70;67.90
21259;DHT22;10787;53.364;-1.480;2023-08-07T14:45:40;21.90;53.30
21259;DHT22;10787;53.364;-1.480;2023-08-07T14:48:24;21.70;51.70
21259;DHT22;10787;53.364;-1.480;2023-08-07T14:51:09;22.00;69.30
21259;DHT22;10787;53.364;-1.480;2023-08-07T14:53:53;21.90;43.60
21259;DHT22;10787;53.364;-1.480;2023-08-07T14:56:37;21.50;18.00
21259;DHT22;10787;53.364;-1.480;2023-08-07T14:59:22;21.30;49.00
21259;DHT22;10787;53.364;-1.480;2023-08-07T15:02:06;21.00;28.20
21259;DHT22;10787;53.364;-1.480;2023-08-07T15:04:51;22.00;45.20
21259;DHT22;10787;53.364;-1.480;2023-08-07T15:07:35;23.50;71.50
21259;DHT22;10787;53.364;-1.480;2023-08-07T15:10:19;23.20;61.10
21259;DHT22;10787;53.364;-1.480;2023-08-07T15:13:05;23.50;70.10
21259;DHT22;10787;53.364;-1.480;2023-08-07T15:15:50;23.20;47.10
21259;DHT22;10787;53.364;-1.480;2023-08-07T15:18:35;22.80;60.80
21259;DHT22;10787;53.364;-1.480;2023-08-07T15:21:19;22.30;47.00
21259;DHT22;10787;53.364;-1.480;2023-08-07T15:24:04;21.80;43.20
21259;DHT22;10787;53.364;-1.480;2023-08-07T15:26:48;21.90;42.20
21259;DHT22;10787;53.364;-1.480;2023-08-07T15:29:33;22.40;58.80
21259;DHT22;10787;53.364;-1.480;2023-08-07T15:32:17;22.30;50.30
21259;DHT22;10787;53.364;-1.480;2023-08-07T15:35:04;22.00;25.70
21259;DHT22;10787;53.364;-1.480;2023-08-07T15:37:48;21.50;21.70
21259;DHT22;10787;53.364;-1.480;2023-08-07T15:40:33;20.90;25.00
21259;DHT22;10787;53.364;-1.480;2023-08-07T15:43:17;21.00;10.40
21259;DHT22;10787;53.364;-1.480;2023-08-07T15:46:01;21.50;34.20
21259;DHT22;10787;53.364;-1.480;2023-08-07T15:48:46;22.10;53.20
21259;DHT22;10787;53.364;-1.480;2023-08-07T15:51:30;23.80;96.40
21259;DHT22;10787;53.364;-1.480;2023-08-07T15:54:14;25.20;92.00
21259;DHT22;10787;53.364;-1.480;2023-08-07T15:56:58;25.50;99.90
21259;DHT22;10787;53.364;-1.480;2023-08-07T15:59:42;24.60;74.90
21259;DHT22;10787;53.364;-1.480;2023-08-07T16:02:26;24.40;61.40
21259;DHT22;10787;53.364;-1.480;2023-08-07T16:05:11;24.70;70.50
21259;DHT22;10787;53.364;-1.480;2023-08-07T16:07:59;24.90;89.00
21259;DHT22;10787;53.364;-1.480;2023-08-07T16:10:44;25.20;87.50
21259;DHT22;10787;53.364;-1.480;2023-08-07T16:13:28;24.10;55.90
21259;DHT22;10787;53.364;-1.480;2023-08-07T16:16:12;23.30;40.50
21259;DHT22;10787;53.364;-1.480;2023-08-07T16:18:56;22.70;30.30
21259;DHT22;10787;53.364;-1.480;2023-08-07T16:21:41;22.80;53.90
21259;DHT22;10787;53.364;-1.480;2023-08-07T16:24:25;23.40;56.30
21259;DHT22;10787;53.364;-1.480;2023-08-07T16:27:09;23.10;53.30
21259;DHT22;10787;53.364;-1.480;2023-08-07T16:29:54;23.70;86.30
21259;DHT22;10787;53.364;-1.480;2023-08-07T16:32:39;24.20;82.80
21259;DHT22;10787;53.364;-1.480;2023-08-07T16:35:23;24.60;70.60
21259;DHT22;10787;53.364;-1.480;2023-08-07T16:38:08;24.50;55.30
21259;DHT22;10787;53.364;-1.480;2023-08-07T16:40:53;25.00;63.80
21259;DHT22;10787;53.364;-1.480;2023-08-07T16:43:37;26.00;83.00
21259;DHT22;10787;53.364;-1.480;2023-08-07T16:46:21;26.20;83.60
21259;DHT22;10787;53.364;-1.480;2023-08-07T16:49:05;25.40;64.10
21259;DHT22;10787;53.364;-1.480;2023-08-07T16:51:49;24.70;65.50
21259;DHT22;10787;53.364;-1.480;2023-08-07T16:54:37;24.90;55.90
21259;DHT22;10787;53.364;-1.480;2023-08-07T16:57:22;24.00;37.80
21259;DHT22;10787;53.364;-1.480;2023-08-07T17:00:10;23.10;33.90
21259;DHT22;10787;53.364;-1.480;2023-08-07T17:02:57;22.40;17.60
21259;DHT22;10787;53.364;-1.480;2023-08-07T17:05:42;22.00;14.20
21259;DHT22;10787;53.364;-1.480;2023-08-07T17:08:26;22.60;26.70
21259;DHT22;10787;53.364;-1.480;2023-08-07T17:11:10;23.30;45.40
21259;DHT22;10787;53.364;-1.480;2023-08-07T17:13:55;23.80;61.60